sensor_id;sensor_type;location;lat;lon;timestamp;pressure;altitude;pressure_sealevel;temperature;humidity
37710;BME280;60223;34.854;-92.408;2023-03-23T00:01:33;100534.42;;;25.21;28.83
37710;BME280;60223;34.854;-92.408;2023-03-23T00:04:00;100541.11;;;25.13;28.80
37710;BME280;60223;34.854;-92.408;2023-03-23T00:06:25;100544.64;;;24.98;28.95
37710;BME280;60223;34.854;-92.408;2023-03-23T00:08:51;100554.11;;;24.71;28.96
37710;BME280;60223;34.854;-92.408;2023-03-23T00:11:18;100561.75;;;25.15;28.77
37710;BME280;60223;34.854;-92.408;2023-03-23T00:13:41;100560.76;;;24.69;29.01
37710;BME280;60223;34.854;-92.408;2023-03-23T00:16:09;100549.37;;;24.91;29.00
37710;BME280;60223;34.854;-92.408;2023-03-23T00:18:32;100535.51;;;24.95;28.73
37710;BME280;60223;34.854;-92.408;2023-03-23T00:20:58;100531.61;;;25.02;28.83
37710;BME280;60223;34.854;-92.408;2023-03-23T00:23:26;100528.63;;;25.22;28.62
37710;BME280;60223;34.854;-92.408;2023-03-23T00:25:52;100534.19;;;24.66;28.96
37710;BME280;60223;34.854;-92.408;2023-03-23T00:28:15;100536.54;;;25.09;28.74
37710;BME280;60223;34.854;-92.408;2023-03-23T00:30:41;100537.04;;;24.82;29.01
37710;BME280;60223;34.854;-92.408;2023-03-23T00:33:07;100541.08;;;25.06;28.76
37710;BME280;60223;34.854;-92.408;2023-03-23T00:35:31;100546.36;;;25.34;28.55
37710;BME280;60223;34.854;-92.408;2023-03-23T00:37:58;100540.13;;;24.53;29.06
37710;BME280;60223;34.854;-92.408;2023-03-23T00:40:24;100538.64;;;24.72;29.10
37710;BME280;60223;34.854;-92.408;2023-03-23T00:42:49;100533.95;;;24.72;29.13
37710;BME280;60223;34.854;-92.408;2023-03-23T00:45:14;100531.66;;;24.83;29.02
37710;BME280;60223;34.854;-92.408;2023-03-23T00:47:40;100527.13;;;24.99;29.13
37710;BME280;60223;34.854;-92.408;2023-03-23T00:50:07;100519.07;;;24.63;29.26
37710;BME280;60223;34.854;-92.408;2023-03-23T00:52:32;100524.57;;;24.94;29.00
37710;BME280;60223;34.854;-92.408;2023-03-23T00:54:57;100524.12;;;24.70;29.24
37710;BME280;60223;34.854;-92.408;2023-03-23T00:57:23;100525.05;;;24.77;29.16
37710;BME280;60223;34.854;-92.408;2023-03-23T00:59:47;100520.47;;;24.77;29.13
37710;BME280;60223;34.854;-92.408;2023-03-23T01:02:14;100520.87;;;24.72;29.23
37710;BME280;60223;34.854;-92.408;2023-03-23T01:04:40;100520.83;;;24.94;29.24
37710;BME280;60223;34.854;-92.408;2023-03-23T01:07:05;100518.85;;;24.73;29.19
37710;BME280;60223;34.854;-92.408;2023-03-23T01:09:30;100519.64;;;25.01;29.19
37710;BME280;60223;34.854;-92.408;2023-03-23T01:11:57;100520.96;;;25.04;29.16
37710;BME280;60223;34.854;-92.408;2023-03-23T01:14:23;100525.41;;;24.66;29.28
37710;BME280;60223;34.854;-92.408;2023-03-23T01:16:48;100530.24;;;24.89;29.21
37710;BME280;60223;34.854;-92.408;2023-03-23T01:19:14;100537.63;;;25.11;29.28
37710;BME280;60223;34.854;-92.408;2023-03-23T01:21:39;100528.85;;;25.69;29.08
37710;BME280;60223;34.854;-92.408;2023-03-23T01:24:05;100537.28;;;25.01;29.15
37710;BME280;60223;34.854;-92.408;2023-03-23T01:26:31;100544.39;;;25.65;28.74
37710;BME280;60223;34.854;-92.408;2023-03-23T01:28:57;100544.93;;;24.95;29.07
37710;BME280;60223;34.854;-92.408;2023-03-23T01:31:22;100541.84;;;24.95;29.07
37710;BME280;60223;34.854;-92.408;2023-03-23T01:33:48;100543.94;;;24.96;29.11
37710;BME280;60223;34.854;-92.408;2023-03-23T01:36:15;100542.33;;;25.04;29.02
37710;BME280;60223;34.854;-92.408;2023-03-23T01:38:40;100548.41;;;24.58;29.24
37710;BME280;60223;34.854;-92.408;2023-03-23T01:41:04;100554.14;;;24.58;29.25
37710;BME280;60223;34.854;-92.408;2023-03-23T01:43:30;100548.67;;;25.36;28.73
37710;BME280;60223;34.854;-92.408;2023-03-23T01:45:54;100544.89;;;25.26;28.75
37710;BME280;60223;34.854;-92.408;2023-03-23T01:48:23;100550.78;;;25.01;29.09
37710;BME280;60223;34.854;-92.408;2023-03-23T01:50:53;100548.34;;;24.70;29.13
37710;BME280;60223;34.854;-92.408;2023-03-23T01:53:13;100548.00;;;25.15;28.64
37710;BME280;60223;34.854;-92.408;2023-03-23T01:55:40;100549.72;;;24.91;29.00
37710;BME280;60223;34.854;-92.408;2023-03-23T01:58:00;100548.77;;;24.55;29.27
37710;BME280;60223;34.854;-92.408;2023-03-23T02:00:29;100549.24;;;24.32;29.22
37710;BME280;60223;34.854;-92.408;2023-03-23T02:02:55;100555.28;;;24.57;28.90
37710;BME280;60223;34.854;-92.408;2023-03-23T02:05:26;100559.48;;;24.39;29.03
37710;BME280;60223;34.854;-92.408;2023-03-23T02:07:45;100558.62;;;24.92;28.95
37710;BME280;60223;34.854;-92.408;2023-03-23T02:10:11;100569.44;;;24.82;29.02
37710;BME280;60223;34.854;-92.408;2023-03-23T02:12:37;100573.17;;;24.63;28.94
37710;BME280;60223;34.854;-92.408;2023-03-23T02:15:02;100574.38;;;24.62;28.90
37710;BME280;60223;34.854;-92.408;2023-03-23T02:17:33;100574.56;;;24.59;28.71
37710;BME280;60223;34.854;-92.408;2023-03-23T02:20:06;100573.78;;;24.74;28.89
37710;BME280;60223;34.854;-92.408;2023-03-23T02:22:32;100557.82;;;25.08;28.59
37710;BME280;60223;34.854;-92.408;2023-03-23T02:24:57;100559.60;;;25.07;28.55
37710;BME280;60223;34.854;-92.408;2023-03-23T02:27:13;100560.91;;;24.84;28.71
37710;BME280;60223;34.854;-92.408;2023-03-23T02:29:53;100563.10;;;24.84;28.71
37710;BME280;60223;34.854;-92.408;2023-03-23T02:32:13;100568.95;;;24.64;28.90
37710;BME280;60223;34.854;-92.408;2023-03-23T02:34:29;100571.75;;;24.67;28.91
37710;BME280;60223;34.854;-92.408;2023-03-23T02:36:57;100570.92;;;24.83;29.01
37710;BME280;60223;34.854;-92.408;2023-03-23T02:39:18;100565.21;;;25.08;28.69
37710;BME280;60223;34.854;-92.408;2023-03-23T02:41:45;100564.90;;;24.89;28.82
37710;BME280;60223;34.854;-92.408;2023-03-23T02:44:09;100564.28;;;25.03;28.54
37710;BME280;60223;34.854;-92.408;2023-03-23T02:46:35;100566.46;;;24.87;28.71
37710;BME280;60223;34.854;-92.408;2023-03-23T02:49:01;100564.87;;;25.24;28.70
37710;BME280;60223;34.854;-92.408;2023-03-23T02:51:26;100566.66;;;25.69;28.13
37710;BME280;60223;34.854;-92.408;2023-03-23T02:53:53;100564.62;;;25.32;28.60
37710;BME280;60223;34.854;-92.408;2023-03-23T02:56:17;100563.68;;;24.71;28.92
37710;BME280;60223;34.854;-92.408;2023-03-23T02:58:42;100567.70;;;24.75;28.80
37710;BME280;60223;34.854;-92.408;2023-03-23T03:03:33;100567.88;;;24.74;28.83
37710;BME280;60223;34.854;-92.408;2023-03-23T03:06:06;100565.79;;;24.60;28.93
37710;BME280;60223;34.854;-92.408;2023-03-23T03:08:30;100568.91;;;24.82;28.93
37710;BME280;60223;34.854;-92.408;2023-03-23T03:10:54;100570.99;;;24.59;29.00
37710;BME280;60223;34.854;-92.408;2023-03-23T03:13:21;100564.66;;;24.57;28.89
37710;BME280;60223;34.854;-92.408;2023-03-23T03:15:47;100566.09;;;24.63;28.86
37710;BME280;60223;34.854;-92.408;2023-03-23T03:18:15;100568.62;;;24.72;28.74
37710;BME280;60223;34.854;-92.408;2023-03-23T03:20:35;100574.16;;;24.92;28.81
37710;BME280;60223;34.854;-92.408;2023-03-23T03:22:59;100574.78;;;24.76;28.91
37710;BME280;60223;34.854;-92.408;2023-03-23T03:25:24;100579.16;;;24.69;28.78
37710;BME280;60223;34.854;-92.408;2023-03-23T03:27:50;100577.88;;;24.63;28.87
37710;BME280;60223;34.854;-92.408;2023-03-23T03:30:18;100580.49;;;24.75;28.72
37710;BME280;60223;34.854;-92.408;2023-03-23T03:32:46;100577.68;;;24.78;28.86
37710;BME280;60223;34.854;-92.408;2023-03-23T03:35:07;100567.24;;;24.70;28.74
37710;BME280;60223;34.854;-92.408;2023-03-23T03:37:38;100567.23;;;24.78;28.71
37710;BME280;60223;34.854;-92.408;2023-03-23T03:39:55;100566.92;;;24.66;28.78
37710;BME280;60223;34.854;-92.408;2023-03-23T03:42:24;100570.44;;;24.74;28.85
37710;BME280;60223;34.854;-92.408;2023-03-23T03:44:50;100562.19;;;24.94;28.69
37710;BME280;60223;34.854;-92.408;2023-03-23T03:47:15;100582.77;;;24.93;28.72
37710;BME280;60223;34.854;-92.408;2023-03-23T03:49:40;100572.44;;;24.78;28.67
37710;BME280;60223;34.854;-92.408;2023-03-23T03:52:06;100574.61;;;24.71;28.69
37710;BME280;60223;34.854;-92.408;2023-03-23T03:54:32;100571.78;;;24.47;28.90
37710;BME280;60223;34.854;-92.408;2023-03-23T03:56:57;100573.83;;;24.39;28.76
37710;BME280;60223;34.854;-92.408;2023-03-23T03:59:23;100570.03;;;24.60;28.72
37710;BME280;60223;34.854;-92.408;2023-03-23T04:01:48;100563.05;;;24.91;28.66
37710;BME280;60223;34.854;-92.408;2023-03-23T04:04:14;100560.03;;;24.80;28.82
37710;BME280;60223;34.854;-92.408;2023-03-23T04:06:40;100562.22;;;24.74;28.81
37710;BME280;60223;34.854;-92.408;2023-03-23T04:09:06;100556.67;;;24.76;28.83
37710;BME280;60223;34.854;-92.408;2023-03-23T04:11:28;100558.72;;;24.55;28.76
37710;BME280;60223;34.854;-92.408;2023-03-23T04:13:57;100558.98;;;24.83;28.75
37710;BME280;60223;34.854;-92.408;2023-03-23T04:16:21;100556.75;;;24.47;28.84
37710;BME280;60223;34.854;-92.408;2023-03-23T04:18:48;100552.91;;;24.46;28.87
37710;BME280;60223;34.854;-92.408;2023-03-23T04:21:14;100544.41;;;24.83;28.68
37710;BME280;60223;34.854;-92.408;2023-03-23T04:23:38;100546.81;;;24.73;28.78
37710;BME280;60223;34.854;-92.408;2023-03-23T04:26:06;100545.89;;;24.68;28.85
37710;BME280;60223;34.854;-92.408;2023-03-23T04:28:31;100549.32;;;24.82;28.69
37710;BME280;60223;34.854;-92.408;2023-03-23T04:30:57;100544.98;;;24.38;28.94
37710;BME280;60223;34.854;-92.408;2023-03-23T04:33:23;100538.64;;;24.50;28.79
37710;BME280;60223;34.854;-92.408;2023-03-23T04:35:48;100538.06;;;24.39;28.87
37710;BME280;60223;34.854;-92.408;2023-03-23T04:38:14;100536.84;;;24.89;28.67
37710;BME280;60223;34.854;-92.408;2023-03-23T04:40:42;100534.60;;;24.88;28.71
37710;BME280;60223;34.854;-92.408;2023-03-23T04:43:05;100537.86;;;24.86;28.66
37710;BME280;60223;34.854;-92.408;2023-03-23T04:45:28;100542.11;;;24.58;28.73
37710;BME280;60223;34.854;-92.408;2023-03-23T04:47:56;100542.89;;;24.87;28.60
37710;BME280;60223;34.854;-92.408;2023-03-23T04:50:21;100536.25;;;24.86;28.63
37710;BME280;60223;34.854;-92.408;2023-03-23T04:52:47;100541.54;;;24.58;28.91
37710;BME280;60223;34.854;-92.408;2023-03-23T04:55:12;100536.18;;;24.66;28.59
37710;BME280;60223;34.854;-92.408;2023-03-23T04:57:37;100531.97;;;24.63;28.78
37710;BME280;60223;34.854;-92.408;2023-03-23T05:00:04;100525.54;;;24.79;28.70
37710;BME280;60223;34.854;-92.408;2023-03-23T05:02:30;100528.49;;;24.55;28.83
37710;BME280;60223;34.854;-92.408;2023-03-23T05:04:54;100527.75;;;24.98;28.62
37710;BME280;60223;34.854;-92.408;2023-03-23T05:07:21;100536.02;;;24.61;28.83
37710;BME280;60223;34.854;-92.408;2023-03-23T05:09:50;100527.36;;;24.86;28.67
37710;BME280;60223;34.854;-92.408;2023-03-23T05:12:13;100522.19;;;24.50;28.97
37710;BME280;60223;34.854;-92.408;2023-03-23T05:14:40;100521.02;;;24.40;28.82
37710;BME280;60223;34.854;-92.408;2023-03-23T05:17:04;100514.44;;;24.45;28.72
37710;BME280;60223;34.854;-92.408;2023-03-23T05:19:27;100512.78;;;24.55;28.85
37710;BME280;60223;34.854;-92.408;2023-03-23T05:21:56;100507.82;;;24.56;28.98
37710;BME280;60223;34.854;-92.408;2023-03-23T05:24:20;100509.61;;;24.71;28.80
37710;BME280;60223;34.854;-92.408;2023-03-23T05:26:46;100501.03;;;24.56;28.61
37710;BME280;60223;34.854;-92.408;2023-03-23T05:29:10;100505.90;;;24.74;28.70
37710;BME280;60223;34.854;-92.408;2023-03-23T05:31:37;100510.43;;;24.83;28.69
37710;BME280;60223;34.854;-92.408;2023-03-23T05:34:03;100514.97;;;24.66;28.79
37710;BME280;60223;34.854;-92.408;2023-03-23T05:36:28;100507.06;;;25.04;28.47
37710;BME280;60223;34.854;-92.408;2023-03-23T05:38:55;100511.88;;;24.96;28.52
37710;BME280;60223;34.854;-92.408;2023-03-23T05:41:20;100507.93;;;24.59;28.85
37710;BME280;60223;34.854;-92.408;2023-03-23T05:43:43;100508.52;;;24.77;28.63
37710;BME280;60223;34.854;-92.408;2023-03-23T05:46:11;100509.95;;;24.41;28.73
37710;BME280;60223;34.854;-92.408;2023-03-23T05:48:37;100511.67;;;24.53;28.63
37710;BME280;60223;34.854;-92.408;2023-03-23T05:51:02;100512.95;;;24.69;28.68
37710;BME280;60223;34.854;-92.408;2023-03-23T05:53:28;100514.20;;;24.95;28.43
37710;BME280;60223;34.854;-92.408;2023-03-23T05:55:57;100517.27;;;24.72;28.66
37710;BME280;60223;34.854;-92.408;2023-03-23T05:58:19;100505.00;;;25.02;28.42
37710;BME280;60223;34.854;-92.408;2023-03-23T06:00:44;100511.67;;;24.54;28.77
37710;BME280;60223;34.854;-92.408;2023-03-23T06:03:10;100510.00;;;24.57;28.76
37710;BME280;60223;34.854;-92.408;2023-03-23T06:05:41;100522.74;;;24.25;28.91
37710;BME280;60223;34.854;-92.408;2023-03-23T06:08:01;100519.63;;;24.85;28.79
37710;BME280;60223;34.854;-92.408;2023-03-23T06:10:27;100506.69;;;24.73;28.67
37710;BME280;60223;34.854;-92.408;2023-03-23T06:12:53;100513.30;;;24.56;28.81
37710;BME280;60223;34.854;-92.408;2023-03-23T06:15:18;100514.81;;;24.45;28.71
37710;BME280;60223;34.854;-92.408;2023-03-23T06:17:44;100509.60;;;24.44;28.97
37710;BME280;60223;34.854;-92.408;2023-03-23T06:20:09;100506.55;;;24.43;28.91
37710;BME280;60223;34.854;-92.408;2023-03-23T06:22:36;100501.17;;;24.32;28.78
37710;BME280;60223;34.854;-92.408;2023-03-23T06:24:57;100499.14;;;24.42;28.99
37710;BME280;60223;34.854;-92.408;2023-03-23T06:27:26;100500.89;;;24.55;28.86
37710;BME280;60223;34.854;-92.408;2023-03-23T06:29:52;100506.16;;;24.68;28.73
37710;BME280;60223;34.854;-92.408;2023-03-23T06:32:18;100496.97;;;24.56;28.84
37710;BME280;60223;34.854;-92.408;2023-03-23T06:34:42;100500.84;;;24.36;29.03
37710;BME280;60223;34.854;-92.408;2023-03-23T06:37:09;100503.38;;;24.44;29.01
37710;BME280;60223;34.854;-92.408;2023-03-23T06:39:35;100505.23;;;24.47;28.98
37710;BME280;60223;34.854;-92.408;2023-03-23T06:42:01;100505.61;;;24.43;28.96
37710;BME280;60223;34.854;-92.408;2023-03-23T06:44:26;100512.63;;;24.55;28.91
37710;BME280;60223;34.854;-92.408;2023-03-23T06:46:51;100517.79;;;24.49;28.95
37710;BME280;60223;34.854;-92.408;2023-03-23T06:49:16;100517.91;;;24.83;29.04
37710;BME280;60223;34.854;-92.408;2023-03-23T06:51:43;100517.15;;;24.39;29.02
37710;BME280;60223;34.854;-92.408;2023-03-23T06:54:07;100521.47;;;24.34;29.06
37710;BME280;60223;34.854;-92.408;2023-03-23T06:56:35;100514.17;;;24.57;28.84
37710;BME280;60223;34.854;-92.408;2023-03-23T06:58:56;100515.84;;;24.30;29.14
37710;BME280;60223;34.854;-92.408;2023-03-23T07:01:26;100507.15;;;24.42;28.96
37710;BME280;60223;34.854;-92.408;2023-03-23T07:03:51;100513.21;;;24.57;28.84
37710;BME280;60223;34.854;-92.408;2023-03-23T07:06:14;100524.09;;;24.47;28.91
37710;BME280;60223;34.854;-92.408;2023-03-23T07:08:42;100529.14;;;24.36;29.06
37710;BME280;60223;34.854;-92.408;2023-03-23T07:11:07;100530.98;;;24.32;29.10
37710;BME280;60223;34.854;-92.408;2023-03-23T07:13:34;100530.04;;;24.27;29.18
37710;BME280;60223;34.854;-92.408;2023-03-23T07:15:56;100527.04;;;24.64;28.90
37710;BME280;60223;34.854;-92.408;2023-03-23T07:18:24;100534.04;;;24.18;29.01
37710;BME280;60223;34.854;-92.408;2023-03-23T07:20:50;100524.70;;;24.72;28.67
37710;BME280;60223;34.854;-92.408;2023-03-23T07:23:16;100525.76;;;24.87;28.75
37710;BME280;60223;34.854;-92.408;2023-03-23T07:25:42;100530.92;;;24.59;28.78
37710;BME280;60223;34.854;-92.408;2023-03-23T07:28:07;100535.63;;;24.79;28.75
37710;BME280;60223;34.854;-92.408;2023-03-23T07:30:33;100525.20;;;24.67;28.66
37710;BME280;60223;34.854;-92.408;2023-03-23T07:32:58;100522.55;;;24.53;28.79
37710;BME280;60223;34.854;-92.408;2023-03-23T07:35:24;100516.85;;;24.41;28.90
37710;BME280;60223;34.854;-92.408;2023-03-23T07:37:50;100510.97;;;24.65;28.70
37710;BME280;60223;34.854;-92.408;2023-03-23T07:40:16;100507.26;;;24.45;28.82
37710;BME280;60223;34.854;-92.408;2023-03-23T07:42:41;100504.71;;;24.40;28.64
37710;BME280;60223;34.854;-92.408;2023-03-23T07:45:07;100508.86;;;24.36;28.64
37710;BME280;60223;34.854;-92.408;2023-03-23T07:47:32;100499.58;;;24.46;28.86
37710;BME280;60223;34.854;-92.408;2023-03-23T07:49:57;100504.41;;;24.35;28.93
37710;BME280;60223;34.854;-92.408;2023-03-23T07:52:23;100511.81;;;24.42;28.91
37710;BME280;60223;34.854;-92.408;2023-03-23T07:54:49;100513.64;;;24.39;28.89
37710;BME280;60223;34.854;-92.408;2023-03-23T07:57:13;100517.63;;;24.26;29.08
37710;BME280;60223;34.854;-92.408;2023-03-23T07:59:40;100492.52;;;24.69;29.13
37710;BME280;60223;34.854;-92.408;2023-03-23T08:02:07;100500.34;;;24.33;29.07
37710;BME280;60223;34.854;-92.408;2023-03-23T08:04:31;100495.84;;;24.30;29.14
37710;BME280;60223;34.854;-92.408;2023-03-23T08:06:57;100495.40;;;24.31;29.13
37710;BME280;60223;34.854;-92.408;2023-03-23T08:09:22;100494.20;;;24.89;29.02
37710;BME280;60223;34.854;-92.408;2023-03-23T08:11:48;100494.56;;;24.38;29.06
37710;BME280;60223;34.854;-92.408;2023-03-23T08:14:12;100492.43;;;24.68;28.93
37710;BME280;60223;34.854;-92.408;2023-03-23T08:16:40;100504.70;;;24.61;28.74
37710;BME280;60223;34.854;-92.408;2023-03-23T08:19:05;100503.77;;;24.72;28.85
37710;BME280;60223;34.854;-92.408;2023-03-23T08:21:30;100503.38;;;24.29;29.04
37710;BME280;60223;34.854;-92.408;2023-03-23T08:23:56;100490.08;;;24.56;28.77
37710;BME280;60223;34.854;-92.408;2023-03-23T08:26:20;100483.66;;;24.61;28.69
37710;BME280;60223;34.854;-92.408;2023-03-23T08:28:47;100488.75;;;25.06;28.74
37710;BME280;60223;34.854;-92.408;2023-03-23T08:31:14;100481.67;;;24.81;28.97
37710;BME280;60223;34.854;-92.408;2023-03-23T08:33:39;100481.43;;;24.39;28.90
37710;BME280;60223;34.854;-92.408;2023-03-23T08:36:04;100480.73;;;24.39;28.95
37710;BME280;60223;34.854;-92.408;2023-03-23T08:38:28;100481.59;;;24.54;28.78
37710;BME280;60223;34.854;-92.408;2023-03-23T08:40:57;100481.30;;;24.40;28.88
37710;BME280;60223;34.854;-92.408;2023-03-23T08:43:21;100483.99;;;24.52;28.72
37710;BME280;60223;34.854;-92.408;2023-03-23T08:45:47;100485.95;;;24.67;28.61
37710;BME280;60223;34.854;-92.408;2023-03-23T08:48:12;100480.83;;;24.66;28.84
37710;BME280;60223;34.854;-92.408;2023-03-23T08:50:35;100478.42;;;24.32;28.94
37710;BME280;60223;34.854;-92.408;2023-03-23T08:53:03;100476.58;;;24.55;28.72
37710;BME280;60223;34.854;-92.408;2023-03-23T08:55:29;100474.96;;;24.11;28.96
37710;BME280;60223;34.854;-92.408;2023-03-23T08:57:55;100478.70;;;24.43;28.89
37710;BME280;60223;34.854;-92.408;2023-03-23T09:00:22;100468.33;;;24.83;28.99
37710;BME280;60223;34.854;-92.408;2023-03-23T09:02:47;100472.39;;;24.26;29.08
37710;BME280;60223;34.854;-92.408;2023-03-23T09:05:12;100472.83;;;24.28;29.05
37710;BME280;60223;34.854;-92.408;2023-03-23T09:07:37;100467.98;;;24.36;29.03
37710;BME280;60223;34.854;-92.408;2023-03-23T09:10:01;100474.95;;;24.38;28.94
37710;BME280;60223;34.854;-92.408;2023-03-23T09:12:26;100475.58;;;24.38;29.01
37710;BME280;60223;34.854;-92.408;2023-03-23T09:14:55;100479.11;;;24.32;29.09
37710;BME280;60223;34.854;-92.408;2023-03-23T09:17:20;100484.93;;;24.34;29.01
37710;BME280;60223;34.854;-92.408;2023-03-23T09:19:45;100479.08;;;24.54;28.78
37710;BME280;60223;34.854;-92.408;2023-03-23T09:22:11;100478.47;;;24.30;29.01
37710;BME280;60223;34.854;-92.408;2023-03-23T09:24:37;100482.12;;;24.53;28.82
37710;BME280;60223;34.854;-92.408;2023-03-23T09:27:03;100488.99;;;24.34;28.96
37710;BME280;60223;34.854;-92.408;2023-03-23T09:29:28;100484.47;;;24.34;28.98
37710;BME280;60223;34.854;-92.408;2023-03-23T09:31:54;100478.05;;;24.74;28.60
37710;BME280;60223;34.854;-92.408;2023-03-23T09:34:19;100473.25;;;24.59;28.71
37710;BME280;60223;34.854;-92.408;2023-03-23T09:36:45;100470.19;;;24.42;28.86
37710;BME280;60223;34.854;-92.408;2023-03-23T09:39:09;100468.09;;;24.29;28.95
37710;BME280;60223;34.854;-92.408;2023-03-23T09:41:47;100464.45;;;24.68;28.84
37710;BME280;60223;34.854;-92.408;2023-03-23T09:44:08;100461.09;;;24.49;28.81
37710;BME280;60223;34.854;-92.408;2023-03-23T09:46:38;100456.14;;;24.26;28.97
37710;BME280;60223;34.854;-92.408;2023-03-23T09:48:55;100459.55;;;24.28;29.03
37710;BME280;60223;34.854;-92.408;2023-03-23T09:51:28;100466.82;;;24.49;29.07
37710;BME280;60223;34.854;-92.408;2023-03-23T09:53:45;100469.67;;;24.16;29.15
37710;BME280;60223;34.854;-92.408;2023-03-23T09:56:14;100471.89;;;24.17;29.20
37710;BME280;60223;34.854;-92.408;2023-03-23T09:58:41;100473.67;;;24.37;29.01
37710;BME280;60223;34.854;-92.408;2023-03-23T10:01:04;100478.27;;;24.44;28.91
37710;BME280;60223;34.854;-92.408;2023-03-23T10:03:31;100477.57;;;24.25;29.12
37710;BME280;60223;34.854;-92.408;2023-03-23T10:05:53;100486.14;;;24.18;29.14
37710;BME280;60223;34.854;-92.408;2023-03-23T10:08:20;100490.13;;;24.95;28.93
37710;BME280;60223;34.854;-92.408;2023-03-23T10:11:01;100485.69;;;24.36;29.08
37710;BME280;60223;34.854;-92.408;2023-03-23T10:13:12;100486.41;;;24.17;29.18
37710;BME280;60223;34.854;-92.408;2023-03-23T10:15:38;100493.48;;;24.58;29.06
37710;BME280;60223;34.854;-92.408;2023-03-23T10:18:02;100497.78;;;24.31;29.07
37710;BME280;60223;34.854;-92.408;2023-03-23T10:20:39;100508.10;;;24.29;29.08
37710;BME280;60223;34.854;-92.408;2023-03-23T10:22:54;100506.28;;;24.30;29.09
37710;BME280;60223;34.854;-92.408;2023-03-23T10:25:21;100500.52;;;24.67;28.93
37710;BME280;60223;34.854;-92.408;2023-03-23T10:27:44;100512.88;;;24.40;28.94
37710;BME280;60223;34.854;-92.408;2023-03-23T10:30:14;100511.39;;;24.46;29.17
37710;BME280;60223;34.854;-92.408;2023-03-23T10:32:43;100512.76;;;24.29;29.07
37710;BME280;60223;34.854;-92.408;2023-03-23T10:35:03;100513.65;;;24.35;29.01
37710;BME280;60223;34.854;-92.408;2023-03-23T10:37:26;100515.81;;;24.20;29.16
37710;BME280;60223;34.854;-92.408;2023-03-23T10:39:54;100517.03;;;24.20;29.27
37710;BME280;60223;34.854;-92.408;2023-03-23T10:42:24;100514.59;;;24.15;29.21
37710;BME280;60223;34.854;-92.408;2023-03-23T10:44:43;100522.71;;;24.20;29.24
37710;BME280;60223;34.854;-92.408;2023-03-23T10:47:10;100528.58;;;24.21;29.27
37710;BME280;60223;34.854;-92.408;2023-03-23T10:49:40;100522.75;;;24.05;29.17
37710;BME280;60223;34.854;-92.408;2023-03-23T10:52:06;100515.41;;;24.20;29.32
37710;BME280;60223;34.854;-92.408;2023-03-23T10:54:32;100519.65;;;24.30;29.18
37710;BME280;60223;34.854;-92.408;2023-03-23T10:56:50;100527.62;;;24.16;29.34
37710;BME280;60223;34.854;-92.408;2023-03-23T10:59:19;100528.10;;;24.34;29.16
37710;BME280;60223;34.854;-92.408;2023-03-23T11:01:44;100528.07;;;24.50;29.23
37710;BME280;60223;34.854;-92.408;2023-03-23T11:04:12;100526.78;;;24.24;29.24
37710;BME280;60223;34.854;-92.408;2023-03-23T11:06:36;100518.54;;;24.16;29.32
37710;BME280;60223;34.854;-92.408;2023-03-23T11:09:03;100529.77;;;24.12;29.37
37710;BME280;60223;34.854;-92.408;2023-03-23T11:11:30;100528.01;;;24.54;29.27
37710;BME280;60223;34.854;-92.408;2023-03-23T11:13:56;100521.69;;;24.19;29.30
37710;BME280;60223;34.854;-92.408;2023-03-23T11:16:23;100527.61;;;24.64;29.06
37710;BME280;60223;34.854;-92.408;2023-03-23T11:18:42;100543.85;;;24.21;29.29
37710;BME280;60223;34.854;-92.408;2023-03-23T11:21:07;100550.73;;;24.15;29.38
37710;BME280;60223;34.854;-92.408;2023-03-23T11:23:37;100556.72;;;24.18;29.35
37710;BME280;60223;34.854;-92.408;2023-03-23T11:26:00;100563.77;;;24.33;29.19
37710;BME280;60223;34.854;-92.408;2023-03-23T11:28:26;100574.18;;;24.33;29.18
37710;BME280;60223;34.854;-92.408;2023-03-23T11:30:50;100571.56;;;24.23;29.31
37710;BME280;60223;34.854;-92.408;2023-03-23T11:33:17;100576.48;;;24.35;29.10
37710;BME280;60223;34.854;-92.408;2023-03-23T11:35:44;100578.82;;;24.34;29.16
37710;BME280;60223;34.854;-92.408;2023-03-23T11:38:11;100576.30;;;24.45;29.02
37710;BME280;60223;34.854;-92.408;2023-03-23T11:40:43;100571.66;;;24.15;29.32
37710;BME280;60223;34.854;-92.408;2023-03-23T11:43:00;100576.41;;;24.24;29.27
37710;BME280;60223;34.854;-92.408;2023-03-23T11:45:32;100573.07;;;24.46;29.34
37710;BME280;60223;34.854;-92.408;2023-03-23T11:47:56;100568.74;;;24.38;29.35
37710;BME280;60223;34.854;-92.408;2023-03-23T11:50:20;100562.43;;;24.46;29.37
37710;BME280;60223;34.854;-92.408;2023-03-23T11:52:44;100567.74;;;24.41;29.15
37710;BME280;60223;34.854;-92.408;2023-03-23T11:55:13;100573.17;;;24.60;29.40
37710;BME280;60223;34.854;-92.408;2023-03-23T11:57:33;100572.33;;;24.63;29.50
37710;BME280;60223;34.854;-92.408;2023-03-23T11:59:58;100570.69;;;24.33;29.62
37710;BME280;60223;34.854;-92.408;2023-03-23T12:02:38;100572.07;;;24.60;29.59
37710;BME280;60223;34.854;-92.408;2023-03-23T12:04:57;100570.64;;;24.46;29.47
37710;BME280;60223;34.854;-92.408;2023-03-23T12:07:23;100573.87;;;24.59;29.62
37710;BME280;60223;34.854;-92.408;2023-03-23T12:09:48;100580.92;;;24.11;29.59
37710;BME280;60223;34.854;-92.408;2023-03-23T12:12:15;100585.08;;;23.92;29.83
37710;BME280;60223;34.854;-92.408;2023-03-23T12:14:37;100593.52;;;24.94;29.26
37710;BME280;60223;34.854;-92.408;2023-03-23T12:17:06;100590.97;;;24.59;29.08
37710;BME280;60223;34.854;-92.408;2023-03-23T12:19:30;100587.99;;;24.93;29.18
37710;BME280;60223;34.854;-92.408;2023-03-23T12:21:55;100591.01;;;24.77;29.12
37710;BME280;60223;34.854;-92.408;2023-03-23T12:24:20;100594.70;;;24.52;29.35